Etusivu
METAR-TAF:

METAR-TAF

Lentoasemat :

Taos Regional Airport

Taos, New Mexico, Yhdysvallat

Leveyspiiri: 36-27N, Pituuspiiri: 105-40W, korkeus merenpinnasta: 2161 m

Tämänhetkinen sää

Tämä raportti tehtiin 1 tunti ja 1 minuuttia sitten, kello 09.56 UTC
Tuuli 5 kn idästä/koillisesta
Lämpötila -4°C
Kosteus 93%
Ilmanpaine 1028 hPa
Näkyvyys: 16.1 km
selkeää

METAR: KSKX 060956Z AUTO 06005KT 10SM CLR M04/M05 A3035 RMK AO2 SLP298 T10441050 FZRANO

Aika: 03:57 (10:57 UTC)


TAF: puuttuu

Säähavainnot ja -ennusteet yli 4000 lentoasemalta (METAR- ja TAF-raportit).

Käytössä olevat sääasemat on merkitty karttaan keltaisilla ja punaisilla pisteillä.

Aseta hiiri pisteen päälle nähdäksesi sääaseman nimen.

Klikkaa sitten nähdäksesi säähavainnot ja -ennusteet.

Kartan vaihtaminen: klikkaa mustalla rastilla varustettuja vihreitä pisteitä, niin voit zoomata sisään; viivalla varustettua vihreää pistettä, niin voit zoomata ulos tai vihreitä nuolia, niin pääset viereisille kartoille.


METAR-TAF: